Time;durP1;ratioP1;P1;durP2;ratioP2;P2;SDS_P1;SDS_P2;PMS_P1;PMS_P2;Temp;Humidity;BMP_temperature;BMP_pressure;BME280_temperature;BME280_humidity;BME280_pressure;Samples;Min_cycle;Max_cycle;Signal;HPM_P1;HPM_P2
2022/04/20 00:01:56;;;;;;;1.90;1.80;;;;;;;;;;5054077;28;20659;-75
2022/04/20 00:04:25;;;;;;;3.43;1.70;;;;;;;;;;5044613;28;20203;-75
2022/04/20 00:06:54;;;;;;;2.00;1.70;;;;;;;;;;5034545;28;20219;-76
2022/04/20 00:09:22;;;;;;;1.80;1.70;;;;;;;;;;5052050;28;20556;-75
2022/04/20 00:11:50;;;;;;;1.93;1.70;;;;;;;;;;5054739;28;20207;-75
2022/04/20 00:14:23;;;;;;;4.37;2.07;;;;;;;;;;5054973;28;20238;-76
2022/04/20 00:16:52;;;;;;;3.10;1.90;;;;;;;;;;5054941;28;20666;-76
2022/04/20 00:19:20;;;;;;;1.80;1.70;;;;;;;;;;5054151;28;20203;-76
2022/04/20 00:21:49;;;;;;;2.37;1.70;;;;;;;;;;5054260;28;20195;-76
2022/04/20 00:24:17;;;;;;;3.60;2.30;;;;;;;;;;5054348;28;20229;-76
2022/04/20 00:26:46;;;;;;;2.93;2.00;;;;;;;;;;5054308;28;20277;-75
2022/04/20 00:29:14;;;;;;;3.40;1.90;;;;;;;;;;5052840;28;20282;-75
2022/04/20 00:31:44;;;;;;;3.70;2.10;;;;;;;;;;5053277;28;20253;-76
2022/04/20 00:34:12;;;;;;;2.27;2.07;;;;;;;;;;5054548;28;20211;-76
2022/04/20 00:36:41;;;;;;;3.70;2.27;;;;;;;;;;5054108;28;20238;-76
2022/04/20 00:39:09;;;;;;;4.53;2.07;;;;;;;;;;5054419;28;20356;-76
2022/04/20 00:41:38;;;;;;;2.33;2.10;;;;;;;;;;5051866;28;20214;-76
2022/04/20 00:44:07;;;;;;;2.37;2.17;;;;;;;;;;5053147;28;20302;-75
2022/04/20 00:46:35;;;;;;;2.20;2.00;;;;;;;;;;5053056;28;20207;-75
2022/04/20 00:49:06;;;;;;;2.00;1.83;;;;;;;;;;5052374;28;20199;-75
2022/04/20 00:51:35;;;;;;;2.33;2.07;;;;;;;;;;5054299;28;20210;-75
2022/04/20 00:54:04;;;;;;;2.10;1.90;;;;;;;;;;5053739;28;20202;-75
2022/04/20 00:56:32;;;;;;;2.83;1.90;;;;;;;;;;5052972;28;20249;-75
2022/04/20 00:59:01;;;;;;;3.17;2.10;;;;;;;;;;5053572;28;20191;-76
2022/04/20 01:01:31;;;;;;;2.50;2.30;;;;;;;;;;5053093;28;20206;-75
2022/04/20 01:04:00;;;;;;;2.50;1.90;;;;;;;;;;5053048;28;20214;-76
2022/04/20 01:06:30;;;;;;;4.23;2.20;;;;;;;;;;5053360;28;20198;-76
2022/04/20 01:08:59;;;;;;;3.17;2.00;;;;;;;;;;5052768;28;20214;-76
2022/04/20 01:11:28;;;;;;;2.80;2.27;;;;;;;;;;5052177;28;20202;-75
2022/04/20 01:13:56;;;;;;;1.73;1.63;;;;;;;;;;5052937;28;20658;-75
2022/04/20 01:16:25;;;;;;;2.13;1.93;;;;;;;;;;5032643;28;20664;-76
2022/04/20 01:18:54;;;;;;;2.87;1.80;;;;;;;;;;5033263;28;20587;-76
2022/04/20 01:21:24;;;;;;;2.00;1.80;;;;;;;;;;5033137;28;20249;-76
2022/04/20 01:23:52;;;;;;;2.43;1.90;;;;;;;;;;5034463;28;20682;-75
2022/04/20 01:26:21;;;;;;;2.73;2.40;;;;;;;;;;5052794;28;20191;-76
2022/04/20 01:28:50;;;;;;;2.27;1.80;;;;;;;;;;5052972;28;20203;-76
2022/04/20 01:31:19;;;;;;;2.33;1.87;;;;;;;;;;5052511;28;20196;-75
2022/04/20 01:33:47;;;;;;;2.10;1.90;;;;;;;;;;5051922;28;20281;-75
2022/04/20 01:36:16;;;;;;;2.57;1.80;;;;;;;;;;5057174;28;20723;-76
2022/04/20 01:38:46;;;;;;;3.33;2.27;;;;;;;;;;5051251;28;20227;-75
2022/04/20 01:41:14;;;;;;;3.43;2.00;;;;;;;;;;5053357;28;20260;-76
2022/04/20 01:43:43;;;;;;;2.37;1.90;;;;;;;;;;5053057;28;20202;-75
2022/04/20 01:46:11;;;;;;;3.53;2.00;;;;;;;;;;5052612;28;20194;-76
2022/04/20 01:48:41;;;;;;;1.90;1.70;;;;;;;;;;5045478;28;20223;-76
2022/04/20 01:53:57;;;;;;;2.10;1.90;;;;;;;;;;5049981;28;20209;-75
2022/04/20 01:56:26;;;;;;;2.03;1.83;;;;;;;;;;5052407;28;20550;-75
2022/04/20 01:58:55;;;;;;;3.70;2.00;;;;;;;;;;5032453;28;20211;-75
2022/04/20 02:04:09;;;;;;;2.13;1.93;;;;;;;;;;5052783;28;20245;-75
2022/04/20 02:06:38;;;;;;;2.23;2.03;;;;;;;;;;5047683;28;20210;-75
2022/04/20 02:09:08;;;;;;;3.20;2.00;;;;;;;;;;5052251;28;20202;-75
2022/04/20 02:11:37;;;;;;;3.57;2.20;;;;;;;;;;5052124;28;20206;-75
2022/04/20 02:14:05;;;;;;;2.80;2.13;;;;;;;;;;5052306;28;20209;-76
2022/04/20 02:16:34;;;;;;;2.20;2.03;;;;;;;;;;5052177;28;20221;-75
2022/04/20 02:19:09;;;;;;;3.63;2.03;;;;;;;;;;5047675;28;20260;-78
2022/04/20 02:21:42;;;;;;;2.87;2.10;;;;;;;;;;5036128;28;20302;-76
2022/04/20 02:24:13;;;;;;;2.60;2.00;;;;;;;;;;5032796;28;20206;-76
2022/04/20 02:26:43;;;;;;;2.63;2.27;;;;;;;;;;5052155;28;20238;-76
2022/04/20 02:29:12;;;;;;;2.90;2.53;;;;;;;;;;5051605;28;20206;-75
2022/04/20 02:31:41;;;;;;;2.40;2.20;;;;;;;;;;5040144;28;20206;-76
2022/04/20 02:34:10;;;;;;;3.23;1.97;;;;;;;;;;5038510;28;20209;-76
2022/04/20 02:36:38;;;;;;;2.60;2.13;;;;;;;;;;5052016;28;20292;-76
2022/04/20 02:39:07;;;;;;;2.73;2.30;;;;;;;;;;5051635;28;20229;-75
2022/04/20 02:41:38;;;;;;;4.33;2.23;;;;;;;;;;5037956;28;20222;-75
2022/04/20 02:44:07;;;;;;;3.27;2.20;;;;;;;;;;5052028;28;20191;-76
2022/04/20 02:46:35;;;;;;;2.53;1.93;;;;;;;;;;5055907;28;20205;-76
2022/04/20 02:49:04;;;;;;;4.23;2.20;;;;;;;;;;5054490;28;20666;-76
2022/04/20 02:51:32;;;;;;;3.13;2.00;;;;;;;;;;5056833;28;20229;-75
2022/04/20 02:54:01;;;;;;;4.43;2.20;;;;;;;;;;5055456;28;20209;-75
2022/04/20 02:56:29;;;;;;;2.20;2.00;;;;;;;;;;5055566;28;20207;-75
2022/04/20 02:58:59;;;;;;;3.30;2.00;;;;;;;;;;5055913;28;20231;-76
2022/04/20 03:01:28;;;;;;;3.43;2.40;;;;;;;;;;5055527;28;20211;-75
2022/04/20 03:03:56;;;;;;;3.60;2.40;;;;;;;;;;5049888;28;20221;-76
2022/04/20 03:06:25;;;;;;;2.40;2.20;;;;;;;;;;5035534;28;20245;-76
2022/04/20 03:08:53;;;;;;;2.47;2.27;;;;;;;;;;5045260;28;20201;-75
2022/04/20 03:11:22;;;;;;;2.57;2.30;;;;;;;;;;5053960;28;20212;-76
2022/04/20 03:13:50;;;;;;;2.77;2.40;;;;;;;;;;5054317;28;20213;-75
2022/04/20 03:16:23;;;;;;;5.20;2.20;;;;;;;;;;5055513;28;20620;-75
2022/04/20 03:18:52;;;;;;;2.70;2.20;;;;;;;;;;5054467;28;20303;-76
2022/04/20 03:21:20;;;;;;;3.17;2.53;;;;;;;;;;5055139;28;20206;-75
2022/04/20 03:23:48;;;;;;;2.77;2.40;;;;;;;;;;5054532;28;20654;-75
2022/04/20 03:26:17;;;;;;;2.37;2.17;;;;;;;;;;5054517;28;20205;-76
2022/04/20 03:28:45;;;;;;;2.40;2.20;;;;;;;;;;5055046;28;20225;-76
2022/04/20 03:31:14;;;;;;;2.70;2.33;;;;;;;;;;5055257;28;20184;-75
2022/04/20 03:33:44;;;;;;;3.37;2.43;;;;;;;;;;5055498;28;20268;-75
2022/04/20 03:36:12;;;;;;;3.73;2.43;;;;;;;;;;5054353;28;20197;-76
2022/04/20 03:38:41;;;;;;;4.47;2.53;;;;;;;;;;5053623;28;20234;-76
2022/04/20 03:41:09;;;;;;;2.53;2.33;;;;;;;;;;5054444;28;20215;-76
2022/04/20 03:43:38;;;;;;;3.33;2.53;;;;;;;;;;5054756;28;20201;-76
2022/04/20 03:46:06;;;;;;;2.13;1.93;;;;;;;;;;5055161;28;20194;-76
2022/04/20 03:48:35;;;;;;;2.33;2.10;;;;;;;;;;5054435;28;20227;-76
2022/04/20 03:51:05;;;;;;;2.63;2.30;;;;;;;;;;5046476;28;20210;-76
2022/04/20 03:53:33;;;;;;;3.17;2.50;;;;;;;;;;5053169;28;20679;-76
2022/04/20 03:56:02;;;;;;;2.40;2.20;;;;;;;;;;5053037;28;20218;-76
2022/04/20 03:58:30;;;;;;;4.30;2.80;;;;;;;;;;5053528;28;20282;-76
2022/04/20 04:00:59;;;;;;;3.47;2.60;;;;;;;;;;5053628;28;20207;-75
2022/04/20 04:03:27;;;;;;;4.63;2.63;;;;;;;;;;5053977;28;20216;-76
2022/04/20 04:05:56;;;;;;;3.50;2.50;;;;;;;;;;5054070;28;20677;-76
2022/04/20 04:08:26;;;;;;;3.83;2.50;;;;;;;;;;5054860;28;20694;-76
2022/04/20 04:10:56;;;;;;;3.33;2.40;;;;;;;;;;5053998;28;20434;-76
2022/04/20 04:13:25;;;;;;;4.03;2.80;;;;;;;;;;5054218;28;20204;-75
2022/04/20 04:15:53;;;;;;;6.27;2.70;;;;;;;;;;5054659;28;20547;-75
2022/04/20 04:18:22;;;;;;;3.90;2.73;;;;;;;;;;5054019;28;20228;-76
2022/04/20 04:20:50;;;;;;;3.27;2.40;;;;;;;;;;5054564;28;20250;-76
2022/04/20 04:23:19;;;;;;;3.33;2.73;;;;;;;;;;5054300;28;20206;-75
2022/04/20 04:25:48;;;;;;;3.50;2.60;;;;;;;;;;5054336;28;20193;-76
2022/04/20 04:28:20;;;;;;;3.57;2.60;;;;;;;;;;5053799;28;20639;-76
2022/04/20 04:30:48;;;;;;;6.03;2.70;;;;;;;;;;5054220;28;20204;-76
2022/04/20 04:33:17;;;;;;;3.83;2.60;;;;;;;;;;5049826;28;20197;-76
2022/04/20 04:35:45;;;;;;;2.73;2.50;;;;;;;;;;5053463;28;20202;-76
2022/04/20 04:38:15;;;;;;;2.90;2.20;;;;;;;;;;5052361;28;20290;-76
2022/04/20 04:40:43;;;;;;;4.23;2.83;;;;;;;;;;5054033;28;20194;-76
2022/04/20 04:43:14;;;;;;;5.37;2.57;;;;;;;;;;5051237;28;20216;-76
2022/04/20 04:48:39;;;;;;;3.83;2.80;;;;;;;;;;5040326;28;20242;-76
2022/04/20 04:51:08;;;;;;;4.63;2.50;;;;;;;;;;5033921;28;20218;-76
2022/04/20 04:53:36;;;;;;;2.97;2.27;;;;;;;;;;5033770;28;20271;-76
2022/04/20 04:56:11;;;;;;;6.10;2.83;;;;;;;;;;5045625;28;20544;-76
2022/04/20 04:58:40;;;;;;;3.73;2.60;;;;;;;;;;5052682;28;20234;-76
2022/04/20 05:01:09;;;;;;;2.67;2.43;;;;;;;;;;5051061;28;20205;-76
2022/04/20 05:03:38;;;;;;;2.47;2.27;;;;;;;;;;5049334;28;20254;-75
2022/04/20 05:06:06;;;;;;;2.93;2.63;;;;;;;;;;5046092;28;20201;-76
2022/04/20 05:08:34;;;;;;;2.67;2.43;;;;;;;;;;5052102;28;20652;-76
2022/04/20 05:11:03;;;;;;;3.10;2.50;;;;;;;;;;5052838;28;20204;-75
2022/04/20 05:13:31;;;;;;;3.33;2.67;;;;;;;;;;5053197;28;20641;-75
2022/04/20 05:16:01;;;;;;;3.43;2.47;;;;;;;;;;5048615;28;20208;-77
2022/04/20 05:18:30;;;;;;;3.93;2.63;;;;;;;;;;5052079;28;20227;-77
2022/04/20 05:20:58;;;;;;;4.47;2.37;;;;;;;;;;5051743;28;20664;-76
2022/04/20 05:23:27;;;;;;;4.07;2.60;;;;;;;;;;5043597;28;20214;-76
2022/04/20 05:25:56;;;;;;;3.53;2.50;;;;;;;;;;5052694;28;20196;-76
2022/04/20 05:28:24;;;;;;;3.60;2.60;;;;;;;;;;5050833;28;20303;-76
2022/04/20 05:30:54;;;;;;;3.13;2.47;;;;;;;;;;5052915;28;20209;-76
2022/04/20 05:33:24;;;;;;;3.87;2.77;;;;;;;;;;5051072;28;20299;-75
2022/04/20 05:35:53;;;;;;;4.23;2.50;;;;;;;;;;5037234;28;20194;-76
2022/04/20 05:41:40;;;;;;;3.47;2.60;;;;;;;;;;5050379;28;20214;-75
2022/04/20 05:44:10;;;;;;;4.27;2.50;;;;;;;;;;5049081;28;20254;-76
2022/04/20 05:46:39;;;;;;;4.20;2.70;;;;;;;;;;5052093;28;20206;-75
2022/04/20 05:49:09;;;;;;;3.07;2.33;;;;;;;;;;5052391;28;20207;-75
2022/04/20 05:51:37;;;;;;;4.63;2.30;;;;;;;;;;5043951;28;20573;-76
2022/04/20 05:54:06;;;;;;;3.67;2.50;;;;;;;;;;5033132;28;20189;-75
2022/04/20 05:56:34;;;;;;;2.73;2.40;;;;;;;;;;5048216;28;20205;-76
2022/04/20 05:59:03;;;;;;;2.93;2.60;;;;;;;;;;5037202;28;20289;-75
2022/04/20 06:01:31;;;;;;;5.10;2.50;;;;;;;;;;5043780;28;20257;-76
2022/04/20 06:04:00;;;;;;;4.07;2.50;;;;;;;;;;5050666;28;20205;-75
2022/04/20 06:06:30;;;;;;;4.60;2.70;;;;;;;;;;5051770;28;20331;-76
2022/04/20 06:08:59;;;;;;;3.43;2.70;;;;;;;;;;5051401;28;20214;-75
2022/04/20 06:11:30;;;;;;;2.83;2.60;;;;;;;;;;5040520;28;20200;-76
2022/04/20 06:13:59;;;;;;;4.93;2.93;;;;;;;;;;5052734;28;20192;-75
2022/04/20 06:16:27;;;;;;;3.67;2.40;;;;;;;;;;5052733;28;20257;-77
2022/04/20 06:19:02;;;;;;;4.00;2.50;;;;;;;;;;5051769;28;20252;-75
2022/04/20 06:21:32;;;;;;;2.40;2.17;;;;;;;;;;5056791;28;20194;-76
2022/04/20 06:24:01;;;;;;;3.23;2.73;;;;;;;;;;5055291;28;20654;-76
2022/04/20 06:26:29;;;;;;;2.93;2.67;;;;;;;;;;5051260;28;20264;-76
2022/04/20 06:28:58;;;;;;;3.20;2.90;;;;;;;;;;5054039;28;20217;-75
2022/04/20 06:31:26;;;;;;;4.43;2.90;;;;;;;;;;5055049;28;20187;-76
2022/04/20 06:33:58;;;;;;;3.40;3.00;;;;;;;;;;5054840;28;20676;-75
2022/04/20 06:36:26;;;;;;;5.67;3.20;;;;;;;;;;5055767;28;20281;-75
2022/04/20 06:38:56;;;;;;;3.67;3.10;;;;;;;;;;5054424;28;20257;-75
2022/04/20 06:41:24;;;;;;;3.33;2.97;;;;;;;;;;5055007;28;20226;-75
2022/04/20 06:43:53;;;;;;;3.20;2.90;;;;;;;;;;5053502;28;20612;-74
2022/04/20 06:46:21;;;;;;;5.10;3.10;;;;;;;;;;5049261;28;20257;-74
2022/04/20 06:48:50;;;;;;;3.50;3.20;;;;;;;;;;5054804;28;20206;-75
2022/04/20 06:51:18;;;;;;;3.57;2.67;;;;;;;;;;5055389;28;20613;-74
2022/04/20 06:59:26;;;;;;;3.87;2.80;;;;;;;;;;4998167;28;20275;-75
2022/04/20 07:01:55;;;;;;;3.27;2.90;;;;;;;;;;5054148;28;20230;-75
2022/04/20 07:04:24;;;;;;;7.53;3.10;;;;;;;;;;5054644;28;20202;-75
2022/04/20 07:06:52;;;;;;;4.13;3.03;;;;;;;;;;5041675;28;20686;-75
2022/04/20 07:09:21;;;;;;;3.30;2.93;;;;;;;;;;5052505;28;20596;-75
2022/04/20 07:11:50;;;;;;;3.23;2.93;;;;;;;;;;5045530;28;20199;-75
2022/04/20 07:14:19;;;;;;;4.27;3.33;;;;;;;;;;5055123;28;20258;-75
2022/04/20 07:16:47;;;;;;;4.30;2.50;;;;;;;;;;5053036;28;20302;-75
2022/04/20 07:19:16;;;;;;;3.10;2.53;;;;;;;;;;5052716;28;20608;-75
2022/04/20 07:21:45;;;;;;;3.57;2.90;;;;;;;;;;5054272;28;20641;-74
2022/04/20 07:24:13;;;;;;;5.13;2.73;;;;;;;;;;5052060;28;20202;-76
2022/04/20 07:26:41;;;;;;;4.77;3.30;;;;;;;;;;5053994;28;20223;-75
2022/04/20 07:29:11;;;;;;;3.07;2.73;;;;;;;;;;5054401;28;20211;-75
2022/04/20 07:31:40;;;;;;;3.90;2.90;;;;;;;;;;5053821;28;20605;-75
2022/04/20 07:34:09;;;;;;;4.93;3.00;;;;;;;;;;5054118;28;20199;-75
2022/04/20 07:36:37;;;;;;;3.57;3.03;;;;;;;;;;5054902;28;20209;-75
2022/04/20 07:39:06;;;;;;;3.87;2.97;;;;;;;;;;5053689;28;20637;-76
2022/04/20 07:41:34;;;;;;;4.67;3.30;;;;;;;;;;5052957;28;20227;-75
2022/04/20 07:44:03;;;;;;;4.77;3.20;;;;;;;;;;5055150;28;20203;-75
2022/04/20 07:46:33;;;;;;;3.70;3.37;;;;;;;;;;5053010;28;20264;-75
2022/04/20 07:50:18;;;;;;;3.50;3.00;;;;;;;;;;5044384;28;20235;-75
2022/04/20 07:51:50;;;;;;;3.30;3.00;;;;;;;;;;5045539;28;20609;-75
2022/04/20 07:54:19;;;;;;;3.13;2.83;;;;;;;;;;5055131;28;20678;-75
2022/04/20 07:56:47;;;;;;;3.20;2.87;;;;;;;;;;5047665;28;20210;-75
2022/04/20 07:59:18;;;;;;;4.00;2.70;;;;;;;;;;5052607;28;20306;-75
2022/04/20 08:01:48;;;;;;;4.50;2.93;;;;;;;;;;5040400;28;20228;-75
2022/04/20 08:04:17;;;;;;;3.47;2.80;;;;;;;;;;5052021;28;20211;-75
2022/04/20 08:06:46;;;;;;;4.40;3.20;;;;;;;;;;5055269;28;20223;-75
2022/04/20 08:09:14;;;;;;;5.40;3.30;;;;;;;;;;5053596;28;20252;-75
2022/04/20 08:11:42;;;;;;;3.53;3.23;;;;;;;;;;5052857;28;20210;-75
2022/04/20 08:14:11;;;;;;;4.87;3.10;;;;;;;;;;5053461;28;20203;-75
2022/04/20 08:16:40;;;;;;;6.33;3.30;;;;;;;;;;5043603;28;20204;-76
2022/04/20 08:19:11;;;;;;;4.40;3.37;;;;;;;;;;5054205;28;20274;-75
2022/04/20 08:21:40;;;;;;;3.33;3.03;;;;;;;;;;5051983;28;20734;-76
2022/04/20 08:24:08;;;;;;;4.23;3.20;;;;;;;;;;5051463;28;20614;-76
2022/04/20 08:26:37;;;;;;;5.57;3.53;;;;;;;;;;5050936;28;20225;-76
2022/04/20 08:29:09;;;;;;;3.53;3.23;;;;;;;;;;5053367;28;20203;-75
2022/04/20 08:31:38;;;;;;;4.80;3.13;;;;;;;;;;5050688;28;20203;-76
2022/04/20 08:34:07;;;;;;;4.23;2.83;;;;;;;;;;5043498;28;20235;-76
2022/04/20 08:36:37;;;;;;;3.80;3.40;;;;;;;;;;5045380;28;20257;-75
2022/04/20 08:39:08;;;;;;;6.50;3.60;;;;;;;;;;5052474;28;20699;-76
2022/04/20 08:41:36;;;;;;;4.83;3.30;;;;;;;;;;5046946;28;20230;-75
2022/04/20 08:44:06;;;;;;;4.53;3.40;;;;;;;;;;5053021;28;20218;-74
2022/04/20 08:46:41;;;;;;;4.67;3.80;;;;;;;;;;5051596;28;20244;-76
2022/04/20 08:49:10;;;;;;;4.40;3.60;;;;;;;;;;5047803;28;20639;-76
2022/04/20 08:54:28;;;;;;;4.83;3.60;;;;;;;;;;5052854;28;20249;-75
2022/04/20 08:59:44;;;;;;;4.77;3.20;;;;;;;;;;5046179;28;20207;-75
2022/04/20 09:02:13;;;;;;;4.93;3.07;;;;;;;;;;5047085;28;20586;-75
2022/04/20 09:04:42;;;;;;;4.40;3.43;;;;;;;;;;5051688;28;20651;-75
2022/04/20 09:07:14;;;;;;;3.60;3.30;;;;;;;;;;5051520;28;20242;-76
2022/04/20 09:09:43;;;;;;;4.67;3.40;;;;;;;;;;5042407;28;20721;-75
2022/04/20 09:12:16;;;;;;;5.47;3.90;;;;;;;;;;5050331;28;20696;-76
2022/04/20 09:14:48;;;;;;;3.93;3.20;;;;;;;;;;5071947;28;20624;-76
2022/04/20 09:17:20;;;;;;;3.50;3.20;;;;;;;;;;5051169;28;20219;-76
2022/04/20 09:19:51;;;;;;;4.20;2.80;;;;;;;;;;5048629;28;20545;-76
2022/04/20 09:22:22;;;;;;;4.07;3.50;;;;;;;;;;5039944;28;20207;-76
2022/04/20 09:25:05;;;;;;;5.10;3.20;;;;;;;;;;5051788;28;20663;-75
2022/04/20 09:27:35;;;;;;;3.37;3.07;;;;;;;;;;5052139;28;20623;-76
2022/04/20 09:30:05;;;;;;;3.40;3.10;;;;;;;;;;5051151;28;20198;-75
2022/04/20 09:32:39;;;;;;;3.67;2.50;;;;;;;;;;5050346;28;20294;-75
2022/04/20 09:35:09;;;;;;;3.10;2.80;;;;;;;;;;5050287;28;20203;-76
2022/04/20 09:37:44;;;;;;;3.83;2.80;;;;;;;;;;5045823;28;20223;-76
2022/04/20 09:40:15;;;;;;;3.43;2.80;;;;;;;;;;5059414;28;20201;-76
2022/04/20 09:43:00;;;;;;;2.97;2.67;;;;;;;;;;5055134;28;20230;-75
2022/04/20 09:45:29;;;;;;;5.50;2.77;;;;;;;;;;5046493;28;20203;-76
2022/04/20 09:50:44;;;;;;;3.87;2.60;;;;;;;;;;5041829;28;20206;-75
2022/04/20 09:53:14;;;;;;;3.00;2.30;;;;;;;;;;5050960;28;20195;-76
2022/04/20 09:55:43;;;;;;;3.57;2.40;;;;;;;;;;5041310;28;20237;-76
2022/04/20 09:58:12;;;;;;;3.37;2.70;;;;;;;;;;5051477;28;20223;-75
2022/04/20 10:00:42;;;;;;;3.70;2.50;;;;;;;;;;5050112;28;20199;-76
2022/04/20 10:03:11;;;;;;;2.90;2.67;;;;;;;;;;5049705;28;20228;-74
2022/04/20 10:05:40;;;;;;;5.57;2.93;;;;;;;;;;5048315;28;20215;-74
2022/04/20 10:08:10;;;;;;;3.40;2.50;;;;;;;;;;5051096;28;20225;-75
2022/04/20 10:10:40;;;;;;;2.80;2.43;;;;;;;;;;5044672;28;20274;-74
2022/04/20 10:13:11;;;;;;;2.73;2.50;;;;;;;;;;5042254;28;20199;-75
2022/04/20 10:18:28;;;;;;;4.00;2.93;;;;;;;;;;5047065;28;20576;-74
2022/04/20 10:21:00;;;;;;;3.40;3.10;;;;;;;;;;5048332;28;20195;-75
2022/04/20 10:23:30;;;;;;;4.47;3.00;;;;;;;;;;5041296;28;20226;-75
2022/04/20 10:26:01;;;;;;;4.38;2.80;;;;;;;;;;5050635;28;20577;-75
2022/04/20 10:28:36;;;;;;;5.05;3.03;;;;;;;;;;5038968;28;20225;-75
2022/04/20 10:31:14;;;;;;;3.25;2.95;;;;;;;;;;5052397;28;20206;-75
2022/04/20 10:33:44;;;;;;;3.47;2.70;;;;;;;;;;5052351;28;20276;-75
2022/04/20 10:36:18;;;;;;;3.83;3.38;;;;;;;;;;5050152;28;20207;-75
2022/04/20 10:38:47;;;;;;;3.75;3.10;;;;;;;;;;5051443;28;20239;-76
2022/04/20 10:41:18;;;;;;;3.72;2.90;;;;;;;;;;5050987;28;20580;-76
2022/04/20 10:43:47;;;;;;;3.65;3.20;;;;;;;;;;5050101;28;20211;-76
2022/04/20 10:46:17;;;;;;;3.45;3.15;;;;;;;;;;5032982;28;20230;-75
2022/04/20 10:48:47;;;;;;;3.95;2.85;;;;;;;;;;5038872;28;20314;-75
2022/04/20 10:51:16;;;;;;;3.60;3.30;;;;;;;;;;5051889;28;20215;-75
2022/04/20 10:53:46;;;;;;;4.93;3.10;;;;;;;;;;5048713;28;20191;-75
2022/04/20 10:56:15;;;;;;;3.95;3.53;;;;;;;;;;5044408;28;20218;-75
2022/04/20 10:58:58;;;;;;;4.78;3.22;;;;;;;;;;5051916;28;20709;-75
2022/04/20 11:01:28;;;;;;;3.88;3.47;;;;;;;;;;5031894;28;20204;-76
2022/04/20 11:04:07;;;;;;;4.30;3.63;;;;;;;;;;5040007;28;20219;-76
2022/04/20 11:07:00;;;;;;;3.70;3.35;;;;;;;;;;5043396;28;20203;-75
2022/04/20 11:09:48;;;;;;;4.43;3.47;;;;;;;;;;5047689;28;20670;-76
2022/04/20 11:21:13;;;;;;;4.72;3.53;;;;;;;;;;5056092;28;20187;-76
2022/04/20 11:23:58;;;;;;;4.13;3.70;;;;;;;;;;5055146;28;20231;-75
2022/04/20 11:26:28;;;;;;;4.43;3.25;;;;;;;;;;5049280;28;20603;-76
2022/04/20 11:28:59;;;;;;;4.53;3.22;;;;;;;;;;5035584;28;20208;-76
2022/04/20 11:31:29;;;;;;;3.60;3.30;;;;;;;;;;5035359;28;20211;-75
2022/04/20 11:34:01;;;;;;;5.00;3.40;;;;;;;;;;5040436;28;20279;-77
2022/04/20 11:36:31;;;;;;;3.65;2.97;;;;;;;;;;5047522;28;20233;-76
2022/04/20 11:39:01;;;;;;;5.10;3.47;;;;;;;;;;5047222;28;20195;-76
2022/04/20 11:41:29;;;;;;;3.75;3.38;;;;;;;;;;5053466;28;20203;-77
2022/04/20 11:43:59;;;;;;;4.03;3.00;;;;;;;;;;5052290;28;20227;-77
2022/04/20 11:46:27;;;;;;;3.28;2.85;;;;;;;;;;5052896;28;20269;-75
2022/04/20 11:49:11;;;;;;;4.47;3.20;;;;;;;;;;5045402;28;20207;-76
2022/04/20 11:51:45;;;;;;;5.03;3.10;;;;;;;;;;5040086;28;20204;-76
2022/04/20 11:54:24;;;;;;;2.95;2.70;;;;;;;;;;5034392;28;20688;-75
2022/04/20 11:56:52;;;;;;;2.80;2.50;;;;;;;;;;5046759;28;20222;-75
2022/04/20 11:59:22;;;;;;;3.17;2.20;;;;;;;;;;5038836;28;20536;-76
2022/04/20 12:01:51;;;;;;;2.92;2.30;;;;;;;;;;5044597;28;20219;-75
2022/04/20 12:04:20;;;;;;;2.63;2.30;;;;;;;;;;5043056;28;20227;-75
2022/04/20 12:06:52;;;;;;;3.17;2.50;;;;;;;;;;5039670;28;20216;-76
2022/04/20 12:09:24;;;;;;;3.53;2.80;;;;;;;;;;5037651;28;20196;-76
2022/04/20 12:11:53;;;;;;;2.85;2.58;;;;;;;;;;5042498;28;20261;-76
2022/04/20 12:14:23;;;;;;;2.70;2.50;;;;;;;;;;5053215;28;20601;-76
2022/04/20 12:16:58;;;;;;;3.60;2.78;;;;;;;;;;5051184;28;20222;-76
2022/04/20 12:19:27;;;;;;;4.13;2.53;;;;;;;;;;5050385;28;20210;-76
2022/04/20 12:22:04;;;;;;;4.05;2.60;;;;;;;;;;5053952;28;20724;-75
2022/04/20 12:24:33;;;;;;;3.08;2.30;;;;;;;;;;5061864;28;20661;-76
2022/04/20 12:27:02;;;;;;;2.85;2.53;;;;;;;;;;5042599;28;20227;-75
2022/04/20 12:29:34;;;;;;;3.35;2.63;;;;;;;;;;5049687;28;20710;-76
2022/04/20 12:32:02;;;;;;;3.25;2.78;;;;;;;;;;5054892;28;20234;-75
2022/04/20 12:34:31;;;;;;;3.15;2.70;;;;;;;;;;5051123;28;20203;-76
2022/04/20 12:37:03;;;;;;;3.72;2.28;;;;;;;;;;5048644;28;20226;-75
2022/04/20 12:39:34;;;;;;;4.05;2.80;;;;;;;;;;5052174;28;20231;-75
2022/04/20 12:42:06;;;;;;;3.05;2.72;;;;;;;;;;5047369;28;20208;-74
2022/04/20 12:44:39;;;;;;;3.17;2.88;;;;;;;;;;5047353;28;20207;-75
2022/04/20 12:47:26;;;;;;;3.38;2.60;;;;;;;;;;5048179;28;20235;-76
2022/04/20 12:50:10;;;;;;;4.32;2.20;;;;;;;;;;5051422;28;20651;-76
2022/04/20 12:52:49;;;;;;;4.38;2.50;;;;;;;;;;5048043;28;20207;-76
2022/04/20 12:55:17;;;;;;;9.82;2.88;;;;;;;;;;5050994;28;20695;-75
2022/04/20 13:03:35;;;;;;;2.88;2.25;;;;;;;;;;5048015;28;20301;-75
2022/04/20 13:06:06;;;;;;;2.42;2.13;;;;;;;;;;5049616;28;20207;-76
2022/04/20 13:08:36;;;;;;;4.43;2.47;;;;;;;;;;5053275;28;20215;-76
2022/04/20 13:11:04;;;;;;;4.88;2.50;;;;;;;;;;5035313;28;20208;-75
2022/04/20 13:13:53;;;;;;;3.60;2.30;;;;;;;;;;5051148;28;20231;-75
2022/04/20 13:16:21;;;;;;;2.50;2.30;;;;;;;;;;5047518;28;20195;-75
2022/04/20 13:18:51;;;;;;;3.38;2.30;;;;;;;;;;5045269;28;20210;-75
2022/04/20 13:21:19;;;;;;;5.72;2.38;;;;;;;;;;5047803;28;20207;-75
2022/04/20 13:23:52;;;;;;;3.55;2.25;;;;;;;;;;5052672;28;20215;-75
2022/04/20 13:29:14;;;;;;;2.25;2.05;;;;;;;;;;5051007;28;20195;-75
2022/04/20 13:31:44;;;;;;;3.58;2.15;;;;;;;;;;5051328;28;20702;-75
2022/04/20 13:34:12;;;;;;;2.45;2.25;;;;;;;;;;5044922;28;20273;-75
2022/04/20 13:36:41;;;;;;;2.70;2.30;;;;;;;;;;5034678;28;20258;-75
2022/04/20 13:39:11;;;;;;;3.30;2.55;;;;;;;;;;5040547;28;20269;-75
2022/04/20 13:41:39;;;;;;;2.65;2.33;;;;;;;;;;5034001;28;20679;-76
2022/04/20 13:44:08;;;;;;;2.67;1.77;;;;;;;;;;5038023;28;20756;-75
2022/04/20 13:46:37;;;;;;;2.03;1.75;;;;;;;;;;5043514;28;20237;-75
2022/04/20 13:49:05;;;;;;;3.97;2.00;;;;;;;;;;5047546;28;20192;-75
2022/04/20 13:51:34;;;;;;;2.90;1.80;;;;;;;;;;5046074;28;20203;-75
2022/04/20 13:54:04;;;;;;;2.78;2.10;;;;;;;;;;5045244;28;20195;-75
2022/04/20 13:56:34;;;;;;;2.15;1.95;;;;;;;;;;5036530;28;20211;-75
2022/04/20 13:59:02;;;;;;;5.22;2.28;;;;;;;;;;5032802;28;20576;-75
2022/04/20 14:01:31;;;;;;;2.20;2.00;;;;;;;;;;5039024;28;20590;-75
2022/04/20 14:04:00;;;;;;;2.40;2.00;;;;;;;;;;5050486;28;20222;-75
2022/04/20 14:06:28;;;;;;;3.40;2.28;;;;;;;;;;5049988;28;20207;-75
2022/04/20 14:08:56;;;;;;;2.63;2.00;;;;;;;;;;5048621;28;20261;-75
2022/04/20 14:11:25;;;;;;;2.75;1.92;;;;;;;;;;5039188;28;20265;-76
2022/04/20 14:13:55;;;;;;;4.78;2.20;;;;;;;;;;5048921;28;20195;-75
2022/04/20 14:16:25;;;;;;;2.15;1.90;;;;;;;;;;5046749;28;20203;-75
2022/04/20 14:18:56;;;;;;;2.83;2.05;;;;;;;;;;5049982;28;20285;-75
2022/04/20 14:21:25;;;;;;;2.50;1.90;;;;;;;;;;5045860;28;20187;-75
2022/04/20 14:23:56;;;;;;;2.92;1.60;;;;;;;;;;5045489;28;20226;-75
2022/04/20 14:32:12;;;;;;;2.40;1.35;;;;;;;;;;5046920;28;20207;-73
2022/04/20 14:34:41;;;;;;;2.33;1.70;;;;;;;;;;5049998;28;20200;-74
2022/04/20 14:37:10;;;;;;;3.45;1.80;;;;;;;;;;5048850;28;20223;-73
2022/04/20 14:39:40;;;;;;;4.95;1.80;;;;;;;;;;5047428;28;20250;-73
2022/04/20 14:42:08;;;;;;;2.03;1.65;;;;;;;;;;5046983;28;20738;-74
2022/04/20 14:44:39;;;;;;;3.00;1.60;;;;;;;;;;5043992;28;20222;-74
2022/04/20 14:47:08;;;;;;;1.83;1.65;;;;;;;;;;5056566;28;20598;-73
2022/04/20 14:49:37;;;;;;;3.33;1.95;;;;;;;;;;5053741;28;20200;-74
2022/04/20 14:52:07;;;;;;;2.10;1.58;;;;;;;;;;5055580;28;20195;-74
2022/04/20 14:54:36;;;;;;;2.90;1.73;;;;;;;;;;5055632;28;20194;-74
2022/04/20 14:57:05;;;;;;;5.88;1.52;;;;;;;;;;5055098;28;20231;-74
2022/04/20 14:59:34;;;;;;;1.58;1.45;;;;;;;;;;5047419;28;20209;-73
2022/04/20 15:02:04;;;;;;;6.00;2.00;;;;;;;;;;5053093;28;20234;-74
2022/04/20 15:04:34;;;;;;;3.30;1.70;;;;;;;;;;5053931;28;20285;-74
2022/04/20 15:07:03;;;;;;;2.97;1.50;;;;;;;;;;5047533;28;20238;-74
2022/04/20 15:09:32;;;;;;;2.83;1.60;;;;;;;;;;5051805;28;20203;-73
2022/04/20 15:12:00;;;;;;;3.75;1.83;;;;;;;;;;5054004;28;20199;-76
2022/04/20 15:14:29;;;;;;;2.20;1.70;;;;;;;;;;5055236;28;20200;-76
2022/04/20 15:16:57;;;;;;;3.63;1.80;;;;;;;;;;5054683;28;20256;-77
2022/04/20 15:19:27;;;;;;;4.32;1.70;;;;;;;;;;5051958;28;20211;-76
2022/04/20 15:22:00;;;;;;;2.20;1.50;;;;;;;;;;5052302;28;20236;-77
2022/04/20 15:24:29;;;;;;;3.47;1.50;;;;;;;;;;5054972;28;20686;-77
2022/04/20 15:26:57;;;;;;;2.30;1.60;;;;;;;;;;5053993;28;20280;-77
2022/04/20 15:29:26;;;;;;;3.38;1.73;;;;;;;;;;5055235;28;20218;-76
2022/04/20 15:31:56;;;;;;;2.17;1.55;;;;;;;;;;5054412;28;20223;-76
2022/04/20 15:34:25;;;;;;;1.58;1.48;;;;;;;;;;5044519;28;20206;-77
2022/04/20 15:36:55;;;;;;;2.30;1.70;;;;;;;;;;5053987;28;20297;-76
2022/04/20 15:39:24;;;;;;;1.75;1.65;;;;;;;;;;5053634;28;20257;-76
2022/04/20 15:42:12;;;;;;;4.43;1.60;;;;;;;;;;5054867;28;20215;-76
2022/04/20 15:44:40;;;;;;;3.22;1.95;;;;;;;;;;5053687;28;20230;-76
2022/04/20 15:47:09;;;;;;;1.98;1.60;;;;;;;;;;5052829;28;20227;-76
2022/04/20 15:49:38;;;;;;;2.53;1.70;;;;;;;;;;5049722;28;20241;-76
2022/04/20 15:52:08;;;;;;;2.33;1.60;;;;;;;;;;5045689;28;20203;-77